Time;durP1;ratioP1;P1;durP2;ratioP2;P2;SDS_P1;SDS_P2;PMS_P1;PMS_P2;Temp;Humidity;BMP_temperature;BMP_pressure;BME280_temperature;BME280_humidity;BME280_pressure;Samples;Min_cycle;Max_cycle;Signal;HPM_P1;HPM_P2
2021/01/27 00:01:12;;;;;;;35.80;14.57;;;-0.10;99.90;;;;;;4978201;28;20208;-68
2021/01/27 00:03:39;;;;;;;40.53;14.53;;;0.00;99.90;;;;;;4994087;28;20307;-68
2021/01/27 00:06:06;;;;;;;34.53;13.93;;;0.00;99.90;;;;;;4975048;28;20208;-68
2021/01/27 00:08:33;;;;;;;35.13;13.13;;;0.10;99.90;;;;;;4936002;29;20703;-68
2021/01/27 00:10:59;;;;;;;36.57;13.77;;;0.10;99.90;;;;;;4935968;29;20244;-68
2021/01/27 00:13:26;;;;;;;34.13;13.83;;;0.10;99.90;;;;;;4936455;29;20225;-68
2021/01/27 00:15:53;;;;;;;32.30;13.10;;;0.10;99.90;;;;;;4935778;29;20289;-68
2021/01/27 00:18:20;;;;;;;34.73;14.27;;;0.10;99.90;;;;;;4936054;29;20273;-68
2021/01/27 00:20:47;;;;;;;37.67;14.10;;;0.10;99.90;;;;;;4917386;29;20237;-68
2021/01/27 00:23:14;;;;;;;37.47;15.10;;;0.10;99.90;;;;;;4897970;29;20203;-68
2021/01/27 00:25:41;;;;;;;39.07;15.77;;;0.10;99.90;;;;;;4930488;29;20216;-68
2021/01/27 00:28:09;;;;;;;41.20;15.57;;;0.00;99.90;;;;;;4936042;29;20322;-68
2021/01/27 00:30:38;;;;;;;40.73;17.07;;;0.00;99.90;;;;;;4935750;29;20530;-68
2021/01/27 00:33:07;;;;;;;37.57;15.60;;;0.00;99.90;;;;;;4935703;29;20657;-68
2021/01/27 00:35:37;;;;;;;37.97;15.43;;;0.00;99.90;;;;;;4952182;29;20209;-68
2021/01/27 00:38:10;;;;;;;37.03;14.63;;;0.00;99.90;;;;;;4971984;28;20271;-68
2021/01/27 00:40:36;;;;;;;38.40;14.50;;;0.00;99.90;;;;;;4954934;29;20233;-68
2021/01/27 00:43:03;;;;;;;39.50;15.30;;;0.00;99.90;;;;;;4973142;28;20216;-68
2021/01/27 00:45:30;;;;;;;35.13;13.80;;;0.00;99.90;;;;;;4974108;28;20209;-68
2021/01/27 00:47:56;;;;;;;39.53;14.20;;;0.00;99.90;;;;;;4973635;28;20200;-68
2021/01/27 00:50:24;;;;;;;26.83;12.43;;;-0.20;99.90;;;;;;4974158;28;20204;-68
2021/01/27 00:52:52;;;;;;;31.97;13.23;;;0.00;99.90;;;;;;4974134;28;20323;-68
2021/01/27 00:55:25;;;;;;;32.87;13.40;;;0.00;99.90;;;;;;4972932;28;20204;-68
2021/01/27 00:57:54;;;;;;;33.80;14.03;;;0.00;99.90;;;;;;4973637;28;20287;-68
2021/01/27 01:00:28;;;;;;;37.50;15.63;;;0.00;99.90;;;;;;4974096;28;20208;-68
2021/01/27 01:02:55;;;;;;;41.80;15.80;;;0.00;99.90;;;;;;4974088;28;20295;-68
2021/01/27 01:05:26;;;;;;;40.57;15.50;;;-0.10;99.90;;;;;;4962066;28;20220;-68
2021/01/27 01:07:53;;;;;;;37.30;14.53;;;-0.10;99.90;;;;;;4974081;28;20209;-69
2021/01/27 01:10:22;;;;;;;34.67;13.73;;;-0.10;99.90;;;;;;4973720;28;20204;-69
2021/01/27 01:12:49;;;;;;;37.23;14.93;;;-0.10;99.90;;;;;;4992887;28;20215;-69
2021/01/27 01:15:16;;;;;;;36.93;15.13;;;0.00;99.90;;;;;;4993143;28;20208;-69
2021/01/27 01:17:43;;;;;;;36.87;15.30;;;0.00;99.90;;;;;;4992782;28;20214;-69
2021/01/27 01:20:14;;;;;;;43.27;16.50;;;0.00;99.90;;;;;;4992695;28;20208;-69
2021/01/27 01:22:47;;;;;;;46.63;16.10;;;0.00;99.90;;;;;;4992906;28;20206;-69
2021/01/27 01:25:16;;;;;;;47.40;16.83;;;-0.10;99.90;;;;;;4993393;28;20203;-69
2021/01/27 01:27:44;;;;;;;41.50;15.77;;;-0.10;99.90;;;;;;5012281;28;20195;-69
2021/01/27 01:30:16;;;;;;;53.67;18.50;;;-0.10;99.90;;;;;;5071823;28;20209;-69
2021/01/27 01:32:43;;;;;;;48.00;17.50;;;0.00;99.90;;;;;;5071639;28;20180;-69
2021/01/27 01:35:12;;;;;;;44.43;18.13;;;0.00;99.90;;;;;;5032300;28;20209;-69
2021/01/27 01:37:39;;;;;;;46.37;16.70;;;0.00;99.90;;;;;;5051886;28;20210;-67
2021/01/27 01:40:09;;;;;;;49.00;16.97;;;0.00;99.90;;;;;;5051637;28;20284;-67
2021/01/27 01:42:37;;;;;;;50.80;18.13;;;0.00;99.90;;;;;;5051317;28;20675;-67
2021/01/27 01:45:05;;;;;;;45.07;17.10;;;0.00;99.90;;;;;;5051444;28;20198;-67
2021/01/27 01:47:32;;;;;;;49.93;18.17;;;0.00;99.90;;;;;;5031326;28;20205;-67
2021/01/27 01:49:58;;;;;;;45.83;17.43;;;0.00;99.90;;;;;;5031793;28;20377;-68
2021/01/27 01:52:25;;;;;;;43.40;17.73;;;0.00;99.90;;;;;;5011842;28;20212;-67
2021/01/27 01:54:56;;;;;;;50.10;18.77;;;0.00;99.90;;;;;;5012062;28;20234;-67
2021/01/27 01:57:26;;;;;;;49.17;18.27;;;0.00;99.90;;;;;;5011872;28;20203;-67
2021/01/27 01:59:58;;;;;;;56.77;18.30;;;0.00;99.90;;;;;;4991466;28;20270;-67
2021/01/27 02:02:25;;;;;;;46.40;18.77;;;0.00;99.90;;;;;;4992277;28;20546;-67
2021/01/27 02:04:55;;;;;;;40.80;17.47;;;0.00;99.90;;;;;;5012139;28;20246;-67
2021/01/27 02:07:23;;;;;;;48.70;18.00;;;-0.10;99.90;;;;;;5031165;28;20313;-67
2021/01/27 02:09:50;;;;;;;48.50;18.10;;;-0.10;99.90;;;;;;5011404;28;20580;-67
2021/01/27 02:12:41;;;;;;;44.20;17.33;;;-0.10;99.90;;;;;;5011838;28;20608;-67
2021/01/27 02:15:23;;;;;;;45.53;17.90;;;-0.10;99.90;;;;;;5011803;28;20234;-68
2021/01/27 02:18:00;;;;;;;44.90;17.20;;;0.00;99.90;;;;;;5007913;28;20234;-67
2021/01/27 02:21:08;;;;;;;36.50;14.97;;;0.00;99.90;;;;;;4992220;28;20214;-68
2021/01/27 02:24:19;;;;;;;38.13;15.40;;;0.10;99.90;;;;;;4992030;28;20251;-68
2021/01/27 02:27:05;;;;;;;39.33;14.30;;;0.10;99.90;;;;;;4953190;29;20632;-68
2021/01/27 02:29:51;;;;;;;39.17;15.23;;;0.10;99.90;;;;;;4953332;29;20207;-68
2021/01/27 02:32:37;;;;;;;32.67;14.57;;;0.10;99.90;;;;;;4991718;28;20235;-68
2021/01/27 02:35:12;;;;;;;35.83;14.53;;;0.10;99.90;;;;;;4994995;28;20335;-68
2021/01/27 02:37:46;;;;;;;36.90;15.10;;;0.10;99.90;;;;;;5011187;28;20286;-68
2021/01/27 02:40:20;;;;;;;38.20;14.43;;;0.10;99.90;;;;;;5015961;28;20201;-68
2021/01/27 02:42:56;;;;;;;46.80;17.60;;;0.20;99.90;;;;;;5031434;28;20210;-68
2021/01/27 02:45:27;;;;;;;35.93;15.03;;;0.20;99.90;;;;;;5031169;28;20557;-68
2021/01/27 02:47:58;;;;;;;39.20;16.50;;;0.20;99.90;;;;;;5031544;28;20214;-68
2021/01/27 02:50:33;;;;;;;34.03;14.47;;;0.20;99.90;;;;;;5031064;28;20203;-68
2021/01/27 02:53:06;;;;;;;37.67;14.90;;;0.20;99.90;;;;;;5031380;28;20202;-68
2021/01/27 02:55:41;;;;;;;35.07;15.30;;;0.20;99.90;;;;;;5031138;28;20210;-68
2021/01/27 02:58:13;;;;;;;34.80;14.97;;;0.20;99.90;;;;;;5030754;28;20210;-68
2021/01/27 03:00:44;;;;;;;31.70;14.67;;;0.20;99.90;;;;;;5031289;28;20190;-68
2021/01/27 03:03:16;;;;;;;37.13;14.43;;;0.20;99.90;;;;;;5078220;28;20204;-68
2021/01/27 03:05:47;;;;;;;31.70;14.07;;;0.20;99.90;;;;;;5070705;28;20224;-68
2021/01/27 03:08:17;;;;;;;35.70;15.23;;;0.20;99.90;;;;;;5071417;28;20235;-68
2021/01/27 03:10:49;;;;;;;31.80;14.43;;;0.20;99.90;;;;;;5071193;28;20205;-68
2021/01/27 03:13:15;;;;;;;30.77;13.87;;;0.20;99.90;;;;;;5035327;28;20225;-68
2021/01/27 03:15:42;;;;;;;28.90;12.17;;;0.30;99.90;;;;;;5034123;28;20226;-68
2021/01/27 03:18:18;;;;;;;26.70;13.50;;;0.30;99.90;;;;;;4994976;28;20200;-68
2021/01/27 03:20:51;;;;;;;28.13;13.10;;;0.30;99.90;;;;;;4995655;28;20199;-68
2021/01/27 03:23:22;;;;;;;26.23;13.27;;;0.30;99.90;;;;;;4995520;28;20218;-68
2021/01/27 03:25:54;;;;;;;30.63;13.70;;;0.30;99.90;;;;;;4975406;28;20674;-68
2021/01/27 03:28:25;;;;;;;30.17;13.37;;;0.30;99.90;;;;;;4975522;28;20566;-68
2021/01/27 03:30:52;;;;;;;29.67;13.70;;;0.30;99.90;;;;;;4956359;29;20209;-68
2021/01/27 03:33:24;;;;;;;30.10;12.60;;;0.30;99.90;;;;;;4956045;28;20259;-68
2021/01/27 03:35:56;;;;;;;28.90;13.60;;;0.30;99.90;;;;;;4953947;29;20716;-68
2021/01/27 03:38:32;;;;;;;31.53;13.63;;;0.30;99.90;;;;;;4937325;29;20206;-68
2021/01/27 03:41:05;;;;;;;24.00;11.37;;;0.30;99.90;;;;;;4936893;29;20306;-68
2021/01/27 03:43:37;;;;;;;27.47;11.37;;;0.40;99.90;;;;;;4928541;28;20208;-68
2021/01/27 03:46:17;;;;;;;25.73;11.87;;;0.40;99.90;;;;;;4975354;28;20212;-68
2021/01/27 03:48:49;;;;;;;24.07;10.53;;;0.40;99.90;;;;;;4988084;28;20230;-68
2021/01/27 03:51:18;;;;;;;23.43;11.63;;;0.40;99.90;;;;;;5014065;28;20553;-68
2021/01/27 03:53:45;;;;;;;24.27;12.13;;;0.40;99.90;;;;;;5014205;28;20266;-68
2021/01/27 03:56:19;;;;;;;26.03;11.67;;;0.30;99.90;;;;;;5014029;28;20653;-68
2021/01/27 03:58:48;;;;;;;33.57;13.40;;;0.40;99.90;;;;;;4994329;28;20637;-68
2021/01/27 04:01:17;;;;;;;27.17;13.87;;;0.40;99.90;;;;;;5003523;28;20203;-68
2021/01/27 04:03:44;;;;;;;30.37;13.90;;;0.30;99.90;;;;;;5047173;28;20206;-68
2021/01/27 04:06:13;;;;;;;28.33;13.40;;;0.40;99.90;;;;;;5033411;28;20560;-68
2021/01/27 04:08:40;;;;;;;27.60;11.93;;;0.40;99.90;;;;;;5033592;28;20206;-68
2021/01/27 04:11:07;;;;;;;21.53;11.87;;;0.40;99.90;;;;;;5033567;28;20230;-68
2021/01/27 04:13:34;;;;;;;29.33;13.30;;;0.40;99.90;;;;;;4994052;28;20223;-68
2021/01/27 04:16:01;;;;;;;27.00;13.03;;;0.40;99.90;;;;;;4994113;28;20614;-68
2021/01/27 04:18:28;;;;;;;26.03;12.20;;;0.40;99.90;;;;;;4993978;28;20207;-68
2021/01/27 04:20:55;;;;;;;26.00;12.70;;;0.40;99.90;;;;;;4993930;28;20701;-68
2021/01/27 04:23:21;;;;;;;23.20;11.87;;;0.50;99.90;;;;;;5012631;28;20791;-68
2021/01/27 04:25:49;;;;;;;27.20;12.30;;;0.50;99.90;;;;;;5013638;28;20195;-68
2021/01/27 04:28:16;;;;;;;25.50;12.03;;;0.50;99.90;;;;;;4994358;28;20211;-68
2021/01/27 04:30:43;;;;;;;25.57;12.40;;;0.60;99.90;;;;;;4976490;28;20204;-68
2021/01/27 04:33:11;;;;;;;23.17;11.53;;;0.50;99.90;;;;;;4974308;28;20196;-68
2021/01/27 04:35:38;;;;;;;22.10;11.37;;;0.50;99.90;;;;;;4974202;28;20221;-68
2021/01/27 04:38:06;;;;;;;26.27;12.77;;;0.50;99.90;;;;;;5025430;28;20210;-68
2021/01/27 04:40:37;;;;;;;26.00;12.70;;;0.60;99.90;;;;;;5032895;28;20691;-68
2021/01/27 04:43:12;;;;;;;25.60;12.77;;;0.60;99.90;;;;;;5033335;28;20213;-68
2021/01/27 04:45:38;;;;;;;27.50;12.40;;;0.60;99.90;;;;;;5013718;28;20568;-68
2021/01/27 04:48:12;;;;;;;25.77;12.10;;;0.60;99.90;;;;;;5013153;28;20207;-68
2021/01/27 04:50:45;;;;;;;25.87;12.20;;;0.50;99.90;;;;;;5013210;28;20214;-68
2021/01/27 04:53:35;;;;;;;27.37;11.93;;;0.60;99.90;;;;;;4974283;28;20196;-68
2021/01/27 04:56:16;;;;;;;31.30;13.27;;;0.60;99.90;;;;;;4974662;28;20291;-68
2021/01/27 04:58:50;;;;;;;21.47;11.40;;;0.60;99.90;;;;;;4954752;29;20215;-68
2021/01/27 05:01:26;;;;;;;26.87;12.30;;;0.50;99.90;;;;;;4955031;29;20316;-68
2021/01/27 05:04:20;;;;;;;22.17;11.63;;;0.50;99.90;;;;;;4954725;29;20205;-68
2021/01/27 05:06:50;;;;;;;21.97;10.50;;;0.60;99.90;;;;;;4897282;29;20292;-68
2021/01/27 05:09:29;;;;;;;20.13;10.57;;;0.60;99.90;;;;;;4897310;29;20581;-69
2021/01/27 05:11:57;;;;;;;18.83;10.27;;;0.50;99.90;;;;;;4897404;29;20213;-68
2021/01/27 05:14:26;;;;;;;25.97;11.00;;;0.60;99.90;;;;;;4916233;29;20230;-68
2021/01/27 05:16:53;;;;;;;22.87;11.17;;;0.60;99.90;;;;;;4926664;29;20248;-68
2021/01/27 05:19:20;;;;;;;24.47;11.73;;;0.60;99.90;;;;;;4935072;29;20666;-68
2021/01/27 05:21:50;;;;;;;22.23;11.43;;;0.60;99.90;;;;;;4934851;29;20298;-68
2021/01/27 05:24:17;;;;;;;25.03;12.30;;;0.60;99.90;;;;;;4925566;29;20201;-68
2021/01/27 05:26:50;;;;;;;22.33;11.53;;;0.60;99.90;;;;;;4935006;29;20695;-68
2021/01/27 05:29:20;;;;;;;27.23;12.80;;;0.60;99.90;;;;;;4948044;28;20296;-69
2021/01/27 05:32:13;;;;;;;29.03;13.90;;;0.60;99.90;;;;;;4934808;29;20265;-69
2021/01/27 05:34:41;;;;;;;30.00;13.50;;;0.60;99.90;;;;;;4919055;29;20230;-69
2021/01/27 05:37:11;;;;;;;24.97;12.50;;;0.60;99.90;;;;;;4915959;29;20210;-69
2021/01/27 05:39:39;;;;;;;26.33;12.17;;;0.60;99.90;;;;;;4934590;29;20210;-69
2021/01/27 05:42:23;;;;;;;22.13;11.23;;;0.60;99.90;;;;;;4931853;29;20207;-68
2021/01/27 05:44:54;;;;;;;25.90;12.87;;;0.60;99.90;;;;;;4983550;28;20597;-68
2021/01/27 05:47:34;;;;;;;24.47;12.40;;;0.60;99.90;;;;;;4992276;28;20242;-68
2021/01/27 05:50:16;;;;;;;27.20;12.97;;;0.60;99.90;;;;;;4992768;28;20283;-68
2021/01/27 05:52:43;;;;;;;25.60;11.93;;;0.60;99.90;;;;;;4954019;29;20636;-69
2021/01/27 05:55:10;;;;;;;27.80;11.63;;;0.60;99.90;;;;;;4961862;28;20236;-69
2021/01/27 05:57:37;;;;;;;24.50;12.07;;;0.60;99.90;;;;;;4953302;29;20201;-69
2021/01/27 06:00:27;;;;;;;28.60;13.03;;;0.60;99.90;;;;;;4946042;28;20593;-68
2021/01/27 06:02:56;;;;;;;21.83;11.87;;;0.60;99.90;;;;;;4915329;29;20218;-69
2021/01/27 06:05:36;;;;;;;24.63;11.90;;;0.70;99.90;;;;;;4915736;29;20210;-68
2021/01/27 06:08:14;;;;;;;25.33;12.30;;;0.70;99.90;;;;;;4915763;29;20320;-68
2021/01/27 06:10:41;;;;;;;24.90;11.73;;;0.70;99.90;;;;;;4915066;29;20198;-69
2021/01/27 06:13:24;;;;;;;25.10;12.53;;;0.70;99.90;;;;;;4915290;29;20210;-69
2021/01/27 06:15:51;;;;;;;21.20;10.20;;;0.70;99.90;;;;;;4953110;29;20224;-69
2021/01/27 06:18:27;;;;;;;22.80;11.97;;;0.70;99.90;;;;;;4934928;29;20202;-69
2021/01/27 06:21:31;;;;;;;24.73;12.07;;;0.70;99.90;;;;;;4942471;29;20599;-68
2021/01/27 06:24:14;;;;;;;21.23;11.20;;;0.70;99.90;;;;;;4953917;29;20205;-68
2021/01/27 06:27:11;;;;;;;20.60;10.87;;;0.70;99.90;;;;;;4957198;28;20224;-68
2021/01/27 06:30:04;;;;;;;21.83;10.33;;;0.70;99.90;;;;;;5021604;28;20208;-68
2021/01/27 06:32:45;;;;;;;16.67;8.37;;;0.80;99.90;;;;;;5031487;28;20225;-68
2021/01/27 06:35:30;;;;;;;17.57;9.30;;;0.80;99.90;;;;;;5051076;28;20230;-68
2021/01/27 06:38:07;;;;;;;16.80;9.17;;;0.80;99.90;;;;;;5051445;28;20209;-69
2021/01/27 06:40:48;;;;;;;20.17;10.10;;;0.80;99.90;;;;;;5051362;28;20201;-69
2021/01/27 06:43:51;;;;;;;18.10;9.87;;;0.90;99.90;;;;;;5051190;28;20182;-68
2021/01/27 06:46:31;;;;;;;15.57;8.50;;;0.90;99.90;;;;;;5032426;28;20193;-69
2021/01/27 06:49:34;;;;;;;19.03;9.03;;;0.90;99.90;;;;;;5035767;28;20182;-68
2021/01/27 06:52:36;;;;;;;17.03;9.13;;;0.80;99.90;;;;;;4976211;28;20226;-68
2021/01/27 06:55:23;;;;;;;18.70;9.43;;;0.90;99.90;;;;;;4913822;29;20715;-68
2021/01/27 06:58:11;;;;;;;22.23;10.90;;;0.90;99.90;;;;;;4918717;29;20210;-68
2021/01/27 07:00:43;;;;;;;22.13;10.47;;;0.90;99.90;;;;;;4927892;29;20194;-69
2021/01/27 07:03:42;;;;;;;21.77;10.60;;;0.90;99.90;;;;;;4937799;29;20532;-68
2021/01/27 07:06:36;;;;;;;22.70;10.33;;;0.90;99.90;;;;;;4937661;29;20209;-68
2021/01/27 07:09:21;;;;;;;19.27;10.10;;;0.90;99.90;;;;;;4937485;29;20624;-68
2021/01/27 07:12:03;;;;;;;21.23;10.23;;;0.80;99.90;;;;;;4918742;29;20206;-68
2021/01/27 07:14:51;;;;;;;21.83;10.40;;;0.90;99.90;;;;;;4918883;29;20230;-68
2021/01/27 07:17:34;;;;;;;19.73;10.20;;;0.90;99.90;;;;;;4936845;29;20233;-68
2021/01/27 07:20:12;;;;;;;21.80;10.67;;;0.90;99.90;;;;;;4958171;29;20233;-68
2021/01/27 07:22:48;;;;;;;19.63;10.40;;;0.90;99.90;;;;;;4957527;29;20213;-68
2021/01/27 07:25:18;;;;;;;21.97;10.80;;;0.90;99.90;;;;;;4942539;29;20287;-68
2021/01/27 07:27:54;;;;;;;23.03;11.03;;;0.90;99.90;;;;;;4956414;29;20201;-68
2021/01/27 07:30:34;;;;;;;24.53;11.57;;;0.90;99.90;;;;;;4976319;28;20208;-68
2021/01/27 07:33:07;;;;;;;23.27;10.90;;;0.90;99.90;;;;;;4975852;28;20661;-68
2021/01/27 07:35:37;;;;;;;21.77;10.30;;;0.90;99.90;;;;;;4975857;28;20224;-68
2021/01/27 07:38:08;;;;;;;16.87;8.87;;;0.90;99.90;;;;;;4975836;28;20196;-68
2021/01/27 07:40:41;;;;;;;18.60;9.47;;;0.90;99.90;;;;;;4956541;29;20209;-68
2021/01/27 07:43:21;;;;;;;19.97;9.47;;;0.90;99.90;;;;;;4929283;29;20212;-68
2021/01/27 07:45:51;;;;;;;15.67;8.73;;;0.90;99.90;;;;;;4956402;29;20213;-68
2021/01/27 07:48:24;;;;;;;16.97;9.13;;;0.90;99.90;;;;;;4956398;28;20216;-68
2021/01/27 07:50:53;;;;;;;19.07;8.77;;;0.90;99.90;;;;;;4975451;28;20258;-68
2021/01/27 07:53:24;;;;;;;16.20;8.33;;;0.90;99.90;;;;;;4982108;28;20231;-69
2021/01/27 07:56:01;;;;;;;20.23;9.00;;;1.00;99.90;;;;;;4975412;28;20201;-68
2021/01/27 07:58:34;;;;;;;14.70;8.40;;;1.00;99.90;;;;;;4974380;28;20228;-68
2021/01/27 08:01:08;;;;;;;20.43;8.43;;;1.00;99.90;;;;;;4975695;28;20204;-68
2021/01/27 08:03:41;;;;;;;17.40;8.60;;;1.00;99.90;;;;;;4975286;28;20686;-67
2021/01/27 08:06:13;;;;;;;18.27;7.73;;;1.00;99.90;;;;;;4975453;28;20551;-68
2021/01/27 08:08:46;;;;;;;15.37;7.37;;;1.00;99.90;;;;;;4975372;28;20220;-68
2021/01/27 08:11:16;;;;;;;15.13;7.90;;;1.00;99.90;;;;;;4975550;28;20213;-69
2021/01/27 08:13:44;;;;;;;18.93;7.90;;;1.00;99.90;;;;;;4987027;28;20219;-69
2021/01/27 08:16:32;;;;;;;13.70;6.93;;;1.10;99.90;;;;;;5013509;28;20751;-68
2021/01/27 08:19:22;;;;;;;15.60;7.23;;;1.10;99.90;;;;;;5013906;28;20250;-68
2021/01/27 08:21:52;;;;;;;14.30;7.50;;;1.20;99.90;;;;;;5023696;28;20304;-68
2021/01/27 08:24:57;;;;;;;13.93;7.23;;;1.20;99.90;;;;;;5014178;28;20205;-68
2021/01/27 08:27:35;;;;;;;18.23;7.30;;;1.20;99.90;;;;;;5056301;28;20236;-68
2021/01/27 08:30:27;;;;;;;12.43;6.57;;;1.30;99.90;;;;;;5053630;28;20243;-68
2021/01/27 08:33:39;;;;;;;12.00;6.60;;;1.30;99.90;;;;;;5053558;28;20192;-68
2021/01/27 08:36:09;;;;;;;13.23;6.03;;;1.40;99.90;;;;;;5053550;28;20206;-69
2021/01/27 08:38:40;;;;;;;15.73;6.23;;;1.40;99.90;;;;;;5053079;28;20229;-69
2021/01/27 08:41:12;;;;;;;13.93;6.97;;;1.40;99.90;;;;;;5053378;28;20658;-69
2021/01/27 08:43:42;;;;;;;11.80;6.17;;;1.50;99.90;;;;;;5052786;28;20185;-69
2021/01/27 08:46:35;;;;;;;17.43;7.70;;;1.50;99.90;;;;;;5053373;28;20272;-69
2021/01/27 08:49:02;;;;;;;17.17;7.27;;;1.50;99.90;;;;;;5012918;28;20211;-69
2021/01/27 08:51:43;;;;;;;13.13;6.13;;;1.50;99.90;;;;;;5013113;28;20531;-69
2021/01/27 08:54:29;;;;;;;15.20;7.37;;;1.50;99.90;;;;;;5013039;28;20257;-69
2021/01/27 08:57:16;;;;;;;16.10;6.73;;;1.60;99.90;;;;;;4993807;28;20243;-69
2021/01/27 08:59:57;;;;;;;13.97;6.97;;;1.50;99.90;;;;;;4993221;28;20258;-69
2021/01/27 09:02:48;;;;;;;11.97;6.83;;;1.50;99.90;;;;;;4973741;28;20223;-69
2021/01/27 09:05:33;;;;;;;14.37;6.27;;;1.50;99.90;;;;;;4973849;28;20201;-69
2021/01/27 09:08:03;;;;;;;14.20;6.57;;;1.40;99.90;;;;;;4974211;28;20208;-70
2021/01/27 09:10:33;;;;;;;12.77;6.30;;;1.40;99.90;;;;;;4954994;28;20216;-70
2021/01/27 09:13:19;;;;;;;10.90;5.77;;;1.50;99.90;;;;;;4897526;29;20211;-70
2021/01/27 09:15:50;;;;;;;12.67;6.07;;;1.50;99.90;;;;;;4878458;29;20748;-70
2021/01/27 09:18:18;;;;;;;11.27;5.97;;;1.60;99.90;;;;;;4879050;29;20208;-70
2021/01/27 09:20:45;;;;;;;13.73;6.50;;;1.60;99.90;;;;;;4873871;29;20208;-70
2021/01/27 09:23:13;;;;;;;12.93;6.20;;;1.60;99.90;;;;;;4878789;29;20203;-69
2021/01/27 09:25:45;;;;;;;19.13;7.27;;;1.60;99.90;;;;;;4860266;29;20200;-69
2021/01/27 09:28:13;;;;;;;13.80;6.40;;;1.70;99.90;;;;;;4842017;29;20293;-70
2021/01/27 09:30:40;;;;;;;14.67;7.00;;;1.70;99.90;;;;;;4823310;29;20213;-70
2021/01/27 09:33:12;;;;;;;14.40;7.30;;;1.70;99.90;;;;;;4836885;29;20205;-70
2021/01/27 09:35:40;;;;;;;12.93;6.30;;;1.60;99.90;;;;;;4859808;29;20232;-69
2021/01/27 09:38:11;;;;;;;10.07;5.40;;;1.60;99.90;;;;;;4860362;29;20219;-69
2021/01/27 09:40:40;;;;;;;14.87;6.73;;;1.60;99.90;;;;;;4864882;29;20220;-69
2021/01/27 09:43:10;;;;;;;11.77;6.10;;;1.60;99.90;;;;;;4901545;29;20235;-69
2021/01/27 09:45:39;;;;;;;12.57;6.20;;;1.60;99.90;;;;;;4934802;29;20210;-69
2021/01/27 09:48:08;;;;;;;13.57;6.40;;;1.60;99.90;;;;;;4915762;29;20206;-69
2021/01/27 09:50:39;;;;;;;10.37;5.70;;;1.70;99.90;;;;;;4915695;29;20229;-69
2021/01/27 09:53:07;;;;;;;12.10;5.80;;;1.70;99.90;;;;;;4916388;29;20203;-71
2021/01/27 09:55:35;;;;;;;9.37;5.13;;;1.70;99.90;;;;;;4897284;29;20223;-70
2021/01/27 09:58:05;;;;;;;8.43;4.87;;;1.70;99.90;;;;;;4939679;28;20204;-70
2021/01/27 10:00:34;;;;;;;6.90;4.40;;;1.70;99.90;;;;;;4954883;28;20229;-70
2021/01/27 10:03:26;;;;;;;6.80;4.23;;;1.70;99.90;;;;;;4992971;28;20212;-69
2021/01/27 10:05:55;;;;;;;9.90;5.07;;;1.70;99.90;;;;;;4992662;28;20216;-69
2021/01/27 10:08:26;;;;;;;10.17;4.77;;;1.80;99.90;;;;;;4992470;28;20631;-69
2021/01/27 10:11:03;;;;;;;8.50;4.90;;;1.80;99.90;;;;;;4972726;28;20728;-70
2021/01/27 10:13:34;;;;;;;10.17;5.60;;;1.80;99.90;;;;;;4973146;28;20661;-70
2021/01/27 10:16:02;;;;;;;9.50;5.13;;;1.70;99.90;;;;;;4972804;28;20239;-69
2021/01/27 10:18:29;;;;;;;9.67;5.00;;;1.70;99.90;;;;;;4972942;28;20208;-69
2021/01/27 10:21:03;;;;;;;9.73;5.37;;;1.70;99.90;;;;;;4972171;28;20356;-70
2021/01/27 10:23:37;;;;;;;11.73;5.50;;;1.70;99.90;;;;;;4973073;28;20251;-70
2021/01/27 10:26:23;;;;;;;10.77;5.33;;;1.70;99.90;;;;;;4984299;28;20286;-70
2021/01/27 10:29:18;;;;;;;9.23;5.30;;;1.70;99.90;;;;;;5011941;28;20206;-70
2021/01/27 10:31:47;;;;;;;13.10;6.57;;;1.70;99.90;;;;;;5012057;28;20199;-70
2021/01/27 10:34:35;;;;;;;13.47;7.07;;;1.70;99.90;;;;;;5011763;28;20266;-70
2021/01/27 10:37:03;;;;;;;14.60;6.63;;;1.70;99.90;;;;;;5012031;28;20224;-70
2021/01/27 10:39:31;;;;;;;16.97;7.67;;;1.70;99.90;;;;;;5002928;28;20644;-70
2021/01/27 10:42:22;;;;;;;16.40;7.43;;;1.80;99.90;;;;;;5022899;28;20235;-70
2021/01/27 10:45:27;;;;;;;15.27;7.30;;;1.80;99.90;;;;;;5031765;28;20191;-70
2021/01/27 10:48:06;;;;;;;14.17;6.57;;;1.90;99.90;;;;;;4914795;29;20209;-70
2021/01/27 10:50:34;;;;;;;14.40;7.47;;;1.90;99.90;;;;;;4896689;29;20563;-70
2021/01/27 10:53:03;;;;;;;15.87;8.47;;;1.90;99.90;;;;;;4877920;29;20211;-70
2021/01/27 10:55:32;;;;;;;14.47;7.30;;;2.00;99.90;;;;;;4877387;29;20254;-69
2021/01/27 10:58:03;;;;;;;13.00;7.03;;;2.10;99.90;;;;;;4877816;29;20208;-70
2021/01/27 11:00:30;;;;;;;11.37;6.40;;;2.20;99.90;;;;;;4877444;29;20212;-70
2021/01/27 11:02:56;;;;;;;15.30;7.33;;;2.20;99.90;;;;;;4877804;29;20336;-70
2021/01/27 11:05:23;;;;;;;12.47;6.33;;;2.30;99.90;;;;;;4877886;29;20704;-70
2021/01/27 11:07:50;;;;;;;13.33;6.43;;;2.30;99.90;;;;;;4884904;29;20207;-70
2021/01/27 11:10:17;;;;;;;11.87;5.77;;;2.30;99.90;;;;;;4895831;29;20211;-70
2021/01/27 11:12:44;;;;;;;13.13;7.00;;;2.20;99.90;;;;;;4896218;29;20199;-70
2021/01/27 11:15:12;;;;;;;13.63;6.50;;;2.00;99.90;;;;;;4897845;29;20261;-70
2021/01/27 11:17:38;;;;;;;14.93;6.53;;;1.80;99.90;;;;;;4915233;29;20218;-70
2021/01/27 11:20:06;;;;;;;13.50;6.43;;;1.60;99.90;;;;;;4915016;29;20213;-70
2021/01/27 11:22:33;;;;;;;13.33;6.70;;;1.40;99.90;;;;;;4915144;29;20642;-70
2021/01/27 11:25:00;;;;;;;14.17;7.03;;;1.40;99.90;;;;;;4913867;29;20283;-70
2021/01/27 11:27:27;;;;;;;14.60;7.03;;;1.40;99.90;;;;;;4963347;28;20709;-70
2021/01/27 11:29:54;;;;;;;12.73;6.93;;;1.50;99.90;;;;;;5026491;28;20576;-70
2021/01/27 11:32:20;;;;;;;13.10;6.67;;;1.60;99.90;;;;;;5031805;28;20202;-70
2021/01/27 11:34:47;;;;;;;16.77;8.07;;;1.70;99.90;;;;;;5034438;28;20226;-70
2021/01/27 11:37:14;;;;;;;18.53;7.47;;;1.70;99.90;;;;;;5034310;28;20194;-70
2021/01/27 11:39:40;;;;;;;16.30;7.57;;;1.80;99.90;;;;;;5034428;28;20203;-70
2021/01/27 11:42:07;;;;;;;15.57;6.90;;;1.80;99.90;;;;;;5034190;28;20552;-70
2021/01/27 11:44:34;;;;;;;12.53;6.50;;;1.90;99.90;;;;;;5034833;28;20560;-70
2021/01/27 11:47:01;;;;;;;15.13;7.13;;;1.90;99.90;;;;;;4975355;28;20211;-70
2021/01/27 11:49:28;;;;;;;14.80;6.80;;;2.00;99.90;;;;;;4975915;28;20220;-70
2021/01/27 11:51:56;;;;;;;11.40;6.20;;;1.90;99.90;;;;;;4956047;29;20212;-70
2021/01/27 11:54:23;;;;;;;11.87;5.70;;;2.00;99.90;;;;;;4956038;29;20284;-70
2021/01/27 11:56:50;;;;;;;15.13;6.83;;;2.00;99.90;;;;;;4969134;28;20235;-70
2021/01/27 11:59:17;;;;;;;13.17;6.70;;;2.10;99.90;;;;;;4975524;28;20288;-70
2021/01/27 12:01:45;;;;;;;15.43;7.50;;;2.20;99.90;;;;;;4975313;28;20303;-70
2021/01/27 12:04:11;;;;;;;17.30;7.77;;;2.50;99.90;;;;;;4975166;28;20654;-70
2021/01/27 12:06:38;;;;;;;15.20;7.70;;;2.40;99.90;;;;;;4936501;29;20216;-70
2021/01/27 12:09:05;;;;;;;12.67;7.47;;;2.60;99.90;;;;;;4936809;29;20248;-70
2021/01/27 12:11:32;;;;;;;12.67;7.30;;;2.70;99.90;;;;;;4936685;29;20213;-69
2021/01/27 12:13:58;;;;;;;22.60;8.70;;;2.80;99.90;;;;;;4955810;29;20204;-70
2021/01/27 12:16:25;;;;;;;14.40;7.70;;;3.00;99.90;;;;;;4955315;29;20229;-70
2021/01/27 12:18:52;;;;;;;14.00;7.80;;;3.00;99.90;;;;;;4955673;29;20205;-70
2021/01/27 12:21:19;;;;;;;13.53;6.67;;;3.00;99.90;;;;;;4955374;29;20209;-70
2021/01/27 12:23:45;;;;;;;14.80;7.80;;;3.00;99.90;;;;;;4963269;28;20211;-70
2021/01/27 12:26:12;;;;;;;16.27;7.57;;;3.00;99.90;;;;;;4994174;28;20200;-70
2021/01/27 12:28:39;;;;;;;13.43;6.93;;;3.00;99.90;;;;;;5010673;28;20603;-70
2021/01/27 12:31:05;;;;;;;15.37;7.80;;;3.10;99.90;;;;;;5013369;28;20199;-70
2021/01/27 12:33:32;;;;;;;21.57;9.37;;;3.10;99.90;;;;;;4955025;28;20212;-70
2021/01/27 12:35:59;;;;;;;39.63;13.07;;;3.00;99.90;;;;;;4935788;29;20237;-70
2021/01/27 12:38:26;;;;;;;41.37;13.53;;;3.00;99.90;;;;;;4920088;29;20681;-69
2021/01/27 12:40:52;;;;;;;39.80;12.57;;;2.80;99.90;;;;;;4916955;29;20248;-70
2021/01/27 12:43:19;;;;;;;35.57;12.73;;;2.60;99.90;;;;;;4935629;29;20349;-69
2021/01/27 12:45:46;;;;;;;30.90;11.13;;;2.40;99.90;;;;;;4935291;29;20217;-69
2021/01/27 12:48:12;;;;;;;26.63;10.97;;;2.20;99.90;;;;;;4935945;29;20206;-69
2021/01/27 12:50:39;;;;;;;25.40;11.03;;;2.20;99.90;;;;;;4935785;29;20233;-69
2021/01/27 12:53:06;;;;;;;29.83;11.37;;;2.20;99.90;;;;;;4916432;29;20203;-69
2021/01/27 12:55:33;;;;;;;29.10;11.10;;;2.30;99.90;;;;;;4916658;29;20323;-69
2021/01/27 12:58:00;;;;;;;27.47;11.57;;;2.30;99.90;;;;;;4916807;29;20206;-69
2021/01/27 13:00:28;;;;;;;29.10;12.33;;;2.30;99.90;;;;;;4916391;29;20294;-69
2021/01/27 13:02:56;;;;;;;33.83;13.07;;;2.30;99.90;;;;;;4932759;29;20253;-69
2021/01/27 13:05:24;;;;;;;33.67;13.40;;;2.40;99.90;;;;;;4935752;29;20210;-69
2021/01/27 13:07:51;;;;;;;28.13;12.30;;;2.30;99.90;;;;;;4935605;29;20315;-68
2021/01/27 13:10:19;;;;;;;29.10;11.90;;;2.30;99.90;;;;;;4935182;29;20262;-69